CWSW

Sparwood / Elk Valley Airport

Sparwood/Elk Valley, Canada
METAR CWSW 180000Z 11010G17KT 2 1/2SM -SN OVC026 M07/M11 A2985 RMK SN4NS4 LAST STFD OBS/NEXT 171400Z SLP169
Observed Flight Rules
Jan-18 @ 00:00 UTC (12 hours ago) Instrument Flight Rules
Wind Visibility Clouds Conditions
110° at 10 knots
 Gusting to 17 knots
2 1/2 miles
  • Overcast at 2,600' AGL
  • Light Snow
Temperatures Readings
Current -7°C / 19°F
Dewpoint -11°C / 12°F
Humidity 73%
Altimeter 29.85" Hg
Pressure 1016.9 hPa
Elevation 1138
METAR CWSW 180000Z 11010G17KT 2 1/2SM -SN OVC026 M07/M11 A2985 RMK SN4NS4 LAST STFD OBS/NEXT 171400Z SLP169
Observed Flight Rules
Jan-18 @ 00:00 UTC
(12 hours ago)
IFR
Wind Visibility
110° at 10 knots
 Gusting to 17 knots
2 1/2 miles
Clouds
  • Overcast at 2,600' AGL
Conditions
  • Light Snow
Temperature Dewpoint
-7°C / 19°F -11°C / 12°F
Humidity Altimeter Pressure
73% 29.85" Hg 1016.9 hPa